• Join FlightAware (Why Join?)
  • Login
  • US Flag 
05:46AM EDT


 

Airport Tracker/Info


-or-


 

Live Flight TrackerFlight Track Log ✈ DAL571 ✈ 27-Apr-2013 ✈ KATL - TIST / STT

Flight Track Log - Related Links

Times and Time Zones

All times are in EDT time to prevent confusion due to time zone crossing. See the DAL571 flight status page for this flight to view local times or setup timezone preferences in your user account.

Time Position Orientation Groundspeed Altitude Reporting Facility
EDT Latitude Longitude Course Direction KTS MPH feet Rate Location/Type
10:08AM 33.6333 -84.3833 145° Southeast 170 196 2,300  Level Atlanta TRACON
10:09AM 33.6167 -84.3167 107° East 244 281 4,400 2,400 Climbing Atlanta TRACON
10:10AM 33.3516 -84.2348 140° Southeast  Level FlightAware Approximate
10:10AM 33.5667 -84.2833 151° Southeast 261 300 7,200  Level Atlanta TRACON
10:11AM 33.2513 -84.1344 140° Southeast  Level FlightAware Approximate
10:12AM 33.1510 -84.0342 140° Southeast  Level FlightAware Approximate
10:12AM 33.3850 -84.2703 177° South 298 343 12,300  Level Atlanta Center
10:13AM 33.0531 -83.9414 145° Southeast  Level FlightAware Approximate
10:13AM 33.3142 -84.2078 144° Southeast 325 374 13,100  Level Atlanta Center
10:14AM 33.2264 -84.1183 140° Southeast 393 452 15,400 2,220 Climbing Atlanta Center
10:15AM 33.1367 -84.0264 139° Southeast 408 470 17,600 1,860 Climbing Atlanta Center
10:16AM 33.0322 -83.9297 142° Southeast 418 481 19,200 1,680 Climbing Atlanta Center
10:17AM 32.9278 -83.8458 146° Southeast 437 503 21,000 1,800 Climbing Atlanta Center
10:18AM 32.8211 -83.7594 146° Southeast 460 529 22,800 1,500 Climbing Atlanta Center
10:20AM 32.6406 -83.5981 143° Southeast 497 572 25,300 1,380 Climbing Jacksonville Center
10:21AM 32.5367 -83.4939 140° Southeast 503 579 26,700 1,380 Climbing Jacksonville Center
10:22AM 32.4328 -83.3897 140° Southeast 503 579 28,100 1,500 Climbing Jacksonville Center
10:23AM 32.3247 -83.2833 140° Southeast 503 579 29,700 1,440 Climbing Jacksonville Center
10:24AM 32.2183 -83.1775 140° Southeast 498 573 31,000 1,320 Climbing Jacksonville Center
10:25AM 32.1036 -83.0936 148° Southeast 492 566 32,400 1,440 Climbing Jacksonville Center
10:26AM 31.9869 -83.0078 148° Southeast 492 566 33,900 1,260 Climbing Jacksonville Center
10:27AM 31.8764 -82.9244 147° Southeast 486 559 35,000 960 Climbing Jacksonville Center
10:28AM 31.7614 -82.8411 148° Southeast 486 559 35,900 480 Climbing Jacksonville Center
10:29AM 31.6486 -82.7583 148° Southeast 486 559 36,000  Climbing Jacksonville Center
10:30AM 31.5358 -82.6733 147° Southeast 486 559 36,000  Level Jacksonville Center
10:31AM 31.4167 -82.5883 149° Southeast 486 559 36,000  Level Jacksonville Center
10:32AM 31.3017 -82.5108 150° Southeast 486 559 36,000  Level Jacksonville Center
10:33AM 31.1864 -82.4264 148° Southeast 486 559 36,000  Level Jacksonville Center
10:34AM 31.0672 -82.3444 149° Southeast 486 559 36,000  Level Jacksonville Center
10:35AM 30.9539 -82.2603 148° Southeast 491 565 36,000  Level Jacksonville Center
10:36AM 30.8367 -82.1789 149° Southeast 491 565 36,000  Level Jacksonville Center
10:37AM 30.7214 -82.0975 149° Southeast 491 565 36,000  Level Jacksonville Center
10:38AM 30.6058 -82.0164 149° Southeast 491 565 36,000  Level Jacksonville Center
10:39AM 30.4925 -81.9306 147° Southeast 497 572 36,000  Level Jacksonville Center
10:40AM 30.3728 -81.8475 149° Southeast 497 572 36,000  Level Jacksonville Center
10:41AM 30.2406 -81.7578 150° Southeast 498 573 36,000  Level Jacksonville Center
10:42AM 30.1250 -81.6797 150° Southeast 498 573 36,000  Level Jacksonville Center
10:43AM 30.0156 -81.5853 143° Southeast 498 573 36,000  Level Jacksonville Center
10:44AM 29.9225 -81.4642 132° Southeast 490 564 36,000  Level Jacksonville Center
10:45AM 29.8269 -81.3436 132° Southeast 490 564 36,000  Level Jacksonville Center
10:46AM 29.7358 -81.2256 132° Southeast 501 577 36,000  Level Jacksonville Center
10:47AM 29.6403 -81.1053 132° Southeast 501 577 36,000  Level Jacksonville Center
10:48AM 29.5467 -80.9828 131° Southeast 508 585 36,000  Level Jacksonville Center
10:49AM 29.4550 -80.8653 132° Southeast 508 585 36,000  Level Jacksonville Center
10:50AM 29.3633 -80.7481 132° Southeast 508 585 36,000  Level Jacksonville Center
10:51AM 29.2831 -80.6606 136° Southeast 523 602 36,000 420 Level Miami Center
10:52AM 29.1942 -80.5433 131° Southeast 528 608 36,800 480 Climbing Miami Center
10:53AM 29.0992 -80.4286 133° Southeast 507 583 37,000 60 Climbing Miami Center
10:54AM 29.0081 -80.3117 132° Southeast 500 575 37,000  Level Miami Center
10:55AM 28.9131 -80.1925 132° Southeast 500 575 37,000  Level Miami Center
10:56AM 28.8175 -80.0758 133° Southeast 500 575 37,000  Level Miami Center
10:57AM 28.7264 -79.9597 132° Southeast 500 575 37,000  Level Miami Center
10:58AM 28.6306 -79.8436 133° Southeast 500 575 37,000  Level Miami Center
10:59AM 28.5350 -79.7253 133° Southeast 500 575 37,000  Level Miami Center
11:00AM 28.4414 -79.6094 133° Southeast 500 575 37,000  Level Miami Center
11:01AM 28.3494 -79.4964 133° Southeast 500 575 37,000  Level Miami Center
11:02AM 28.2556 -79.3811 133° Southeast 500 575 37,000  Level Miami Center
11:03AM 28.1594 -79.2658 133° Southeast 500 575 37,000  Level Miami Center
11:04AM 28.0672 -79.1533 133° Southeast 495 570 37,000  Level Miami Center
11:05AM 27.9731 -79.0383 133° Southeast 495 570 37,000  Level Miami Center
11:06AM 27.8972 -78.9478 133° Southeast 495 570 37,000  Level Miami Center
11:07AM 27.7925 -78.8236 134° Southeast 490 564 37,000  Level Miami Center
11:08AM 27.6875 -78.7000 134° Southeast 490 564 37,000  Level Miami Center
11:09AM 27.6056 -78.5792 127° Southeast 490 564 37,000  Level Miami Center
11:10AM 27.5256 -78.4492 125° Southeast 495 570 37,000  Level Miami Center
11:11AM 27.4558 -78.3194 121° Southeast 495 570 37,000  Level Miami Center
11:12AM 27.3800 -78.1875 123° Southeast 495 570 37,000  Level Miami Center
11:13AM 27.3017 -78.0650 126° Southeast 495 570 37,000  Level Miami Center
11:14AM 27.2253 -77.9356 124° Southeast 495 570 37,000  Level Miami Center
11:15AM 27.1489 -77.8089 124° Southeast 494 568 37,000  Level Miami Center
11:16AM 27.0725 -77.6800 124° Southeast 503 579 37,000  Level Miami Center
11:17AM 26.9958 -77.5419 122° Southeast 503 579 37,000  Level Miami Center
11:18AM 26.9211 -77.4203 125° Southeast 493 567 37,000  Level Miami Center
11:19AM 26.8442 -77.2894 123° Southeast 492 566 37,000  Level Miami Center
11:20AM 26.7672 -77.1589 123° Southeast 492 566 37,000  Level Miami Center
11:21AM 26.6903 -77.0261 123° Southeast 492 566 37,000  Level Miami Center
11:22AM 26.6172 -76.9053 124° Southeast 492 566 37,000  Level Miami Center
11:23AM 26.5378 -76.7750 124° Southeast 490 564 37,000  Level Miami Center
11:24AM 26.4583 -76.6475 125° Southeast 495 570 37,000  Level Miami Center
11:25AM 26.3869 -76.5269 123° Southeast 486 559 37,000  Level Miami Center
11:26AM 26.3072 -76.3997 125° Southeast 486 559 37,000  Level Miami Center
11:27AM 26.2294 -76.2703 124° Southeast 491 565 37,000  Level Miami Center
11:28AM 26.1536 -76.1433 124° Southeast 485 558 37,000  Level Miami Center
11:29AM 26.0819 -76.0233 124° Southeast 485 558 37,000  Level Miami Center
11:30AM 25.9997 -75.8944 125° Southeast 490 564 37,000  Level Miami Center
11:31AM 25.9214 -75.7681 125° Southeast 490 564 37,000  Level Miami Center
11:32AM 25.8453 -75.6442 124° Southeast 490 564 37,000  Level Miami Center
11:33AM 25.7667 -75.5181 125° Southeast 485 558 37,000  Level Miami Center
11:34AM 25.6906 -75.4014 126° Southeast 485 558 37,000  Level Miami Center
11:35AM 25.6117 -75.2708 124° Southeast 485 558 37,000  Level Miami Center
11:36AM 25.5331 -75.1497 126° Southeast 496 571 37,000  Level Miami Center
11:37AM 25.4542 -75.0222 124° Southeast 496 571 37,000  Level Miami Center
11:38AM 25.3775 -74.8992 125° Southeast 490 564 37,000  Level Miami Center
11:39AM 25.2983 -74.7739 125° Southeast 490 564 37,000  Level Miami Center
11:40AM 25.2214 -74.6511 125° Southeast 490 564 37,000  Level Miami Center
11:41AM 25.1419 -74.5242 125° Southeast 490 564 37,000  Level Miami Center
11:42AM 25.0628 -74.3994 125° Southeast 490 564 37,000  Level Miami Center
11:43AM 24.9875 -74.2819 125° Southeast 490 564 37,000  Level Miami Center
11:44AM 24.9058 -74.1553 125° Southeast 490 564 37,000  Level Miami Center
11:45AM 24.8261 -74.0289 125° Southeast 490 564 37,000  Level Miami Center
11:46AM 24.7486 -73.9094 126° Southeast 485 558 37,000  Level Miami Center
11:47AM 24.6708 -73.7833 124° Southeast 491 565 37,000  Level Miami Center
11:48AM 24.5911 -73.6617 126° Southeast 491 565 37,000  Level Miami Center
11:49AM 24.5108 -73.5361 125° Southeast 491 565 37,000  Level Miami Center
11:50AM 24.4350 -73.4147 124° Southeast 491 565 37,000  Level Miami Center
11:51AM 24.3614 -73.2983 125° Southeast 481 554 37,000  Level Miami Center
11:52AM 24.2725 -73.1733 128° Southeast 487 560 37,000  Level Miami Center
11:53AM 24.1922 -73.0481 125° Southeast 495 570 37,000  Level Miami Center
11:54AM 24.1139 -72.9275 125° Southeast 495 570 37,000  Level Miami Center
11:55AM 24.0353 -72.8050 125° Southeast 490 564 37,000  Level Miami Center
11:56AM 23.9572 -72.6983 129° Southeast 495 570 37,000  Level Miami Center
11:57AM 23.8828 -72.5761 124° Southeast 489 563 37,000  Level Miami Center
11:58AM 23.7933 -72.4453 127° Southeast 495 570 37,000  Level Miami Center
11:59AM 23.7142 -72.3208 125° Southeast 490 564 37,000  Level Miami Center
12:00PM 23.6314 -72.2014 127° Southeast 495 570 37,000  Level Miami Center
12:01PM 23.5503 -72.0800 126° Southeast 495 570 37,000 300 Level Miami Center
12:02PM 23.4711 -71.9583 125° Southeast 488 562 37,600 480 Climbing Miami Center
12:03PM 23.3897 -71.8372 126° Southeast 488 562 38,000 180 Climbing Miami Center
12:04PM 23.3083 -71.7161 126° Southeast 494 568 38,000  Level Miami Center
12:05PM 23.2292 -71.5972 126° Southeast 489 563 38,000  Level Miami Center
12:06PM 23.1478 -71.4764 126° Southeast 494 568 38,000  Level Miami Center
12:07PM 23.0636 -71.3492 126° Southeast 494 568 38,000  Level Miami Center
12:08PM 22.9822 -71.2308 127° Southeast 500 575 38,000  Level Miami Center
12:09PM 22.9092 -71.1236 126° Southeast 500 575 38,000  Level Miami Center
12:10PM 22.8253 -71.0036 127° Southeast 500 575 38,000  Level Miami Center
12:11PM 22.7433 -70.8814 126° Southeast 500 575 38,000  Level Miami Center
12:12PM 22.6611 -70.7592 126° Southeast 500 575 38,000 60 Level Miami Center
12:13PM 22.5769 -70.6372 127° Southeast 506 582 38,200 300 Climbing Miami Center
12:14PM 22.4947 -70.5156 126° Southeast 506 582 38,700 360 Climbing Miami Center
12:15PM 22.4083 -70.3942 128° Southeast 506 582 39,000 120 Climbing Miami Center
12:16PM 22.3258 -70.2728 126° Southeast 512 589 39,000  Level Miami Center
12:17PM 22.2392 -70.1517 128° Southeast 512 589 39,000  Level Miami Center
12:18PM 22.1544 -70.0283 127° Southeast 512 589 39,000  Level Miami Center
12:19PM 22.0697 -69.9075 127° Southeast 512 589 39,000  Level Miami Center
12:20PM 21.9869 -69.7867 126° Southeast 507 583 39,000  Level Miami Center
12:21PM 21.9000 -69.6661 128° Southeast 512 589 39,000  Level Miami Center
12:22PM 21.8128 -69.5414 127° Southeast 517 595 39,000  Level Miami Center
12:23PM 21.7256 -69.4192 128° Southeast 517 595 39,000  Level Miami Center
12:24PM 21.6406 -69.2989 127° Southeast 510 587 39,000  Level Miami Center
12:25PM 21.5511 -69.1772 128° Southeast 515 593 39,000  Level Miami Center
12:26PM 21.4678 -69.0550 126° Southeast 515 593 39,000  Level Miami Center
12:27PM 21.3825 -68.9331 127° Southeast 515 593 39,000  Level Miami Center
12:28PM 21.2950 -68.8139 128° Southeast 515 593 39,000  Level Miami Center
12:29PM 21.2075 -68.6925 128° Southeast 515 593 39,000  Level Miami Center
12:30PM 21.1197 -68.5736 128° Southeast 515 593 39,000  Level Miami Center
12:31PM 21.0361 -68.4522 126° Southeast 515 593 39,000  Level Miami Center
12:32PM 20.9486 -68.3336 128° Southeast 515 593 39,000  Level Miami Center
12:33PM 20.8581 -68.2042 127° Southeast 515 593 39,000  Level Miami Center
12:34PM 20.7750 -68.0989 130° Southeast 515 593 39,000  Level Miami Center
12:35PM 20.6914 -67.9825 128° Southeast 509 586 39,000  Level Miami Center
12:36PM 20.5828 -67.8636 134° Southeast 502 578 39,000  Level Miami Center
12:37PM 20.5072 -67.7450 124° Southeast 502 578 39,000  Level Miami Center
12:38PM 20.4192 -67.6294 129° Southeast 502 578 39,000  Level Miami Center
12:38PM 20.3667 -67.5500 125° Southeast 500 575 39,000  Level San Juan Center
12:39PM 20.2833 -67.4333 127° Southeast 500 575 39,000  Level San Juan Center
12:40PM 20.2000 -67.3167 127° Southeast 490 564 39,000  Level San Juan Center
12:41PM 20.1167 -67.2167 132° Southeast 500 575 39,000  Level San Juan Center
12:42PM 20.0167 -67.1000 132° Southeast 490 564 39,000  Level San Juan Center
12:43PM 19.9333 -66.9833 127° Southeast 500 575 39,000  Level San Juan Center
12:44PM 19.8500 -66.8667 127° Southeast 490 564 39,000  Level San Juan Center
12:45PM 19.7667 -66.7500 127° Southeast 490 564 39,000  Level San Juan Center
12:46PM 19.6667 -66.6500 137° Southeast 490 564 39,000 -600 Level San Juan Center
12:47PM 19.5833 -66.5333 127° Southeast 490 564 37,900 -2,220 Descending San Juan Center
12:48PM 19.5000 -66.4167 127° Southeast 510 587 34,600 -3,000 Descending San Juan Center
12:49PM 19.4000 -66.3000 132° Southeast 520 598 31,900 -2,940 Descending San Juan Center
12:50PM 19.3167 -66.1833 127° Southeast 520 598 28,800 -3,180 Descending San Juan Center
12:51PM 19.2167 -66.0667 132° Southeast 510 587 25,600 -2,880 Descending San Juan Center
12:52PM 19.1333 -65.9500 127° Southeast 500 575 23,100 -2,760 Descending San Juan Center
12:53PM 19.0500 -65.8333 127° Southeast 470 541 20,100 -2,760 Descending San Juan Center
12:54PM 18.9667 -65.7333 131° Southeast 450 518 17,600 -2,400 Descending San Juan Center
12:55PM 18.8833 -65.6333 131° Southeast 430 495 15,300 -2,400 Descending San Juan Center
12:56PM 18.8167 -65.5500 130° Southeast 410 472 12,900 -1,860 Descending San Juan Center
12:57PM 18.7500 -65.4500 125° Southeast 380 437 11,600 -1,140 Descending San Juan Center
12:58PM 18.6667 -65.3833 143° Southeast 330 380 10,700 -1,500 Descending San Juan Center
12:59PM 18.6000 -65.3500 155° Southeast 300 345 8,600 -1,980 Descending San Juan Center
01:00PM 18.5333 -65.3000 145° Southeast 270 311 6,800 -1,440 Descending San Juan Center
01:01PM 18.4667 -65.2667 155° Southeast 260 299 5,700 -780 Descending San Juan Center
01:02PM 18.4167 -65.2333 148° Southeast 200 230 5,300 -660 Descending San Juan Center
01:03PM 18.3833 -65.2000 136° Southeast 180 207 4,400 -960 Descending San Juan Center
01:04PM 18.3667 -65.1500 109° East 180 207 3,400 -1,020 Descending San Juan Center